createdAt,value
2017-06-11T00:06:09.979Z,1012
2017-06-11T00:16:23.916Z,1011.9
2017-06-11T00:26:38.297Z,1011.9
2017-06-11T00:36:53.697Z,1011.9
2017-06-11T00:47:08.367Z,1011.7
2017-06-11T00:57:23.263Z,1011.7
2017-06-11T01:07:38.265Z,1011.8
2017-06-11T01:17:53.564Z,1011.8
2017-06-11T01:28:08.089Z,1011.8
2017-06-11T01:38:23.007Z,1011.7
2017-06-11T01:48:37.974Z,1011.7
2017-06-11T01:58:53.725Z,1011.7
2017-06-11T02:09:08.832Z,1011.6
2017-06-11T02:19:23.454Z,1011.6
2017-06-11T02:29:38.913Z,1011.5
2017-06-11T02:39:53.166Z,1011.6
2017-06-11T02:50:08.781Z,1011.5
2017-06-11T03:00:23.014Z,1011.6
2017-06-11T03:10:38.570Z,1011.5
2017-06-11T03:20:54.233Z,1011.4
2017-06-11T03:31:08.692Z,1011.4
2017-06-11T03:41:24.348Z,1011.3
2017-06-11T03:51:39.938Z,1011.4
2017-06-11T04:01:54.391Z,1011.4
2017-06-11T04:12:08.921Z,1011.6
2017-06-11T04:22:24.087Z,1011.5
2017-06-11T04:32:38.907Z,1011.5
2017-06-11T04:42:52.924Z,1011.5
2017-06-11T04:53:08.222Z,1011.5
2017-06-11T05:03:23.778Z,1011.5
2017-06-11T05:13:37.782Z,1011.4
2017-06-11T05:23:52.874Z,1011.5
2017-06-11T05:34:08.460Z,1011.4
2017-06-11T05:44:23.038Z,1011.4
2017-06-11T05:54:37.233Z,1011.5
2017-06-11T06:04:52.976Z,1011.6
2017-06-11T06:15:08.789Z,1011.7
2017-06-11T06:25:23.194Z,1011.7
2017-06-11T06:35:37.022Z,1011.7
2017-06-11T06:45:50.976Z,1011.5
2017-06-11T06:56:05.844Z,1011.6
2017-06-11T07:06:20.455Z,1011.5
2017-06-11T07:16:34.925Z,1011.5
2017-06-11T07:26:50.672Z,1011.4
2017-06-11T07:37:05.004Z,1011.3
2017-06-11T07:47:18.986Z,1011.2
2017-06-11T07:57:34.310Z,1011.2
2017-06-11T08:07:48.702Z,1011.1
2017-06-11T08:18:03.845Z,1011.2
2017-06-11T08:28:18.571Z,1011.1
2017-06-11T08:38:33.057Z,1010.9
2017-06-11T08:48:48.393Z,1010.8
2017-06-11T08:59:02.416Z,1010.9
2017-06-11T09:09:16.979Z,1011
2017-06-11T09:19:32.700Z,1011.1
2017-06-11T09:29:48.470Z,1011.2
2017-06-11T09:40:04.102Z,1011.2
2017-06-11T09:50:19.747Z,1011.1
2017-06-11T10:00:34.194Z,1010.9
2017-06-11T10:10:49.252Z,1011.1
2017-06-11T10:21:04.034Z,1010.6
2017-06-11T10:31:19.130Z,1010.9
2017-06-11T10:41:34.353Z,1010.7
2017-06-11T10:51:49.666Z,1010.5
2017-06-11T11:02:03.637Z,1010
2017-06-11T11:12:17.796Z,1010.1
2017-06-11T11:22:32.771Z,1009.9
2017-06-11T11:32:47.141Z,1010.2
2017-06-11T11:43:01.242Z,1010
2017-06-11T11:53:15.836Z,1009.7
2017-06-11T12:03:30.305Z,1009.6
2017-06-11T12:13:44.979Z,1009.5
2017-06-11T12:23:59.307Z,1009.4
2017-06-11T12:34:13.739Z,1009.5
2017-06-11T12:44:29.253Z,1008.9
2017-06-11T12:54:44.688Z,1008.8
2017-06-11T13:05:00.507Z,1008.1
2017-06-11T13:15:14.896Z,1008.1
2017-06-11T13:25:28.890Z,1008
2017-06-11T13:35:44.640Z,1007.7
2017-06-11T13:45:58.746Z,1007.4
2017-06-11T13:56:14.075Z,1007.6
2017-06-11T14:06:28.466Z,1007
2017-06-11T14:16:43.528Z,1006.9
2017-06-11T14:26:57.873Z,1006.7
2017-06-11T14:37:12.428Z,1006.8
2017-06-11T14:47:28.055Z,1006.8
2017-06-11T14:57:42.241Z,1006.9
2017-06-11T15:07:56.171Z,1007
2017-06-11T15:18:10.599Z,1006.5
2017-06-11T15:28:24.734Z,1006.7
2017-06-11T15:38:39.787Z,1006.5
2017-06-11T15:48:54.380Z,1006.2
2017-06-11T15:59:09.685Z,1006.1
2017-06-11T16:09:24.988Z,1006.1
2017-06-11T16:19:40.343Z,1006
2017-06-11T16:29:54.969Z,1006
2017-06-11T16:40:10.834Z,1005.9
2017-06-11T16:50:25.801Z,1005.9
2017-06-11T17:00:40.820Z,1005.7
2017-06-11T17:10:56.090Z,1005.8
2017-06-11T17:21:10.320Z,1005.9
2017-06-11T17:31:25.862Z,1005.8
2017-06-11T17:41:40.040Z,1005.6
2017-06-11T17:51:53.934Z,1005.3
2017-06-11T18:02:08.658Z,1005
2017-06-11T18:12:23.424Z,1004.9
2017-06-11T18:22:37.297Z,1004.8
2017-06-11T18:32:51.291Z,1004.5
2017-06-11T18:43:05.549Z,1003.9
2017-06-11T18:53:20.477Z,1004.5
2017-06-11T19:03:35.339Z,1004.5
2017-06-11T19:13:50.884Z,1004.4
2017-06-11T19:24:05.367Z,1004.3
2017-06-11T19:34:20.388Z,1004.3
2017-06-11T19:44:34.350Z,1004.3
2017-06-11T19:54:48.604Z,1004.4
2017-06-11T20:05:03.684Z,1004.6
2017-06-11T20:15:17.536Z,1004.5
2017-06-11T20:25:31.400Z,1004.5
2017-06-11T20:35:45.684Z,1004.7
2017-06-11T20:45:59.582Z,1004.7
2017-06-11T20:56:14.034Z,1004.8
2017-06-11T21:06:28.606Z,1004.9
2017-06-11T21:16:44.328Z,1005
2017-06-11T21:26:58.766Z,1005.1
2017-06-11T21:37:13.775Z,1005.2
2017-06-11T21:47:28.040Z,1005.3
2017-06-11T21:57:43.199Z,1005.4
2017-06-11T22:07:58.517Z,1005.3
2017-06-11T22:18:12.860Z,1005.3
2017-06-11T22:28:28.164Z,1005.4
2017-06-11T22:38:43.427Z,1005.3
2017-06-11T22:48:58.791Z,1005.5
2017-06-11T22:59:14.415Z,1005.3
2017-06-11T23:09:29.656Z,1005.4
2017-06-11T23:19:44.448Z,1005.3
2017-06-11T23:29:58.268Z,1005.3
2017-06-11T23:40:13.927Z,1005.3
2017-06-11T23:50:29.623Z,1005.2
